Leadville, CO (80429)

11:14 PM MST on February 09, 2016 (GMT -0700)
MesoWest | | Change Station
CLOSE
Current Station
Personal Weather Station
Location: Leadville, CO
Elevation: 11399 ft
Nearby Weather Stations

Elev 11399 ft 39.38 °N, 106.20 °W | Updated 1 hour ago

Mostly Cloudy
Mostly Cloudy
18.0 °F
Feels Like 18.0 °F
N
0.0
Wind Variable Wind from North
Gusts 0.0 mph

Today
High -- | Low -- °F
--% Chance of Precip.
Yesterday
High -- | Low -- °F
Precip. -- in
Pressure 30.40 in
Visibility 8.0 miles
Clouds Clear
Dew Point Not available.
Humidity Not available.
Rainfall in
Snow Depth Not available.
7:04 AM 5:34 PM
Waxing Crescent, 4% visible
METAR KLXV 100553Z AUTO 06004KT 8SM CLR M11/M18 A3049 RMK AO2 SLP292 T11061183 10022 21122 50001
Pressure 30.40 in
Visibility 8.0 miles
Clouds Clear
Dew Point Not available.
Humidity Not available.
Rainfall in
Snow Depth Not available.
7:04 AM 5:34 PM
Waxing Crescent, 4% visible
METAR KLXV 100553Z AUTO 06004KT 8SM CLR M11/M18 A3049 RMK AO2 SLP292 T11061183 10022 21122 50001

10-Day Weather Forecast

Almanac

Astronomy

Feb. 09, 2016 Rise Set
Actual Time
Civil Twilight
Nautical Twilight
Astronomical Twilight
Moon
Length of Visible Light
Length of Day
Tomorrow will be .
, % of the Moon is Illuminated

Today's Extremes

State Highs State Lows

Community

WunderPhotos

Upload Photos

1,891,826 photos uploaded!

WunderBlog® & News

Nearby

Air Quality

  Air Quality AQ Index Pollutant
Not available.

Snow Depth

Station Depth Elevation

Earthquake Activity

City Distance Mag. Time & Date
Minimum magnitude displayed is 2.5.

Coastal Water Temperatures

Place Temperature

Stations

Nearby Weather Stations

Station Location Temp. Windchill Dew Point Humidity Wind Precip. Elev Updated Type
                   

Watches & Warnings

There are currently no watches in effect.